Flight Track Log - Related Links

Times and Time Zones

All times are in EDT time to prevent confusion due to time zone crossing. See the N88WF flight status page for this flight to view local times or setup timezone preferences in your user account.

Time Position Orientation Groundspeed Altitude Reporting Facility
EDT Latitude Longitude Course Direction KTS MPH feet Rate Location/Type
Mon 09:15:05 AM 41.0833 -72.3167 265° West 134 154 5,200  Level New York TRACON
Mon 09:16:00 AM 41.0768 -71.9749 270° West  Level Estimated
Mon 09:16:05 AM 41.1000 -72.3667 294° West 122 140 5,900  Level New York TRACON
Mon 09:17:00 AM 41.0769 -72.0294 270° West  Level Estimated
Mon 09:17:05 AM 41.1000 -72.4167 270° West 142 163 6,000  Level New York TRACON
Mon 09:18:00 AM 41.0769 -72.0838 270° West  Level Estimated
Mon 09:18:05 AM 41.1000 -72.4667 270° West 149 171 6,000  Level New York TRACON
Mon 09:19:05 AM 41.1167 -72.5167 294° West 151 174 6,000  Level New York TRACON
Mon 09:19:59 AM 41.1167 -72.5667 270° West 155 178 6,000 -105 Level New York TRACON
Mon 09:20:59 AM 41.1167 -72.6333 270° West 161 185 5,800 -200 Descending New York TRACON
Mon 09:21:59 AM 41.1333 -72.6833 294° West 160 184 5,600 -238 Descending New York TRACON
Mon 09:23:05 AM 41.1500 -72.7500 288° West 160 184 5,300 -300 Descending New York TRACON
Mon 09:23:59 AM 41.1500 -72.8000 270° West 167 192 5,000 -316 Descending New York TRACON
Mon 09:24:59 AM 41.1500 -72.8667 270° West 171 197 4,700 -250 Descending New York TRACON
Mon 09:25:59 AM 41.1500 -72.9333 270° West 170 196 4,500 -100 Descending New York TRACON
Mon 09:26:59 AM 41.1333 -72.9833 246° West 165 190 4,500  Level New York TRACON
Mon 09:27:59 AM 41.1333 -73.0500 270° West 160 184 4,500  Level New York TRACON
Mon 09:28:53 AM 41.1333 -73.1000 270° West 158 182 4,500  Level New York TRACON
Mon 09:29:53 AM 41.1167 -73.1500 246° West 153 176 4,500  Level New York TRACON
Mon 09:30:53 AM 41.1167 -73.2167 270° West 151 174 4,500 -100 Level New York TRACON
Mon 09:31:53 AM 41.1167 -73.2667 270° West 156 180 4,300 -211 Descending New York TRACON
Mon 09:32:47 AM 41.1000 -73.3167 246° West 151 174 4,100 -211 Descending New York TRACON
Mon 09:33:47 AM 41.1000 -73.3667 270° West 146 168 3,900 -250 Descending New York TRACON
Mon 09:34:47 AM 41.0833 -73.4167 246° West 140 161 3,600 -400 Descending New York TRACON
Mon 09:35:47 AM 41.0833 -73.4667 270° West 151 174 3,100 -650 Descending New York TRACON
Mon 09:36:47 AM 41.0667 -73.5333 252° West 160 184 2,300 -700 Descending New York TRACON
Mon 09:37:47 AM 41.0500 -73.5833 246° West 143 165 1,700 -450 Descending New York TRACON
Mon 09:38:47 AM 41.0500 -73.6333 270° West 121 139 1,400 -350 Descending New York TRACON
Mon 09:39:47 AM 41.0667 -73.6667 304° West 106 122 1,000 -400 Descending New York TRACON
Mon 09:41:00 AM 41.0667 -73.7000 270° West  Level FlightAware Approximate
Mon 09:48:00 AM 41.0669 -73.7076 270° West  Level Estimated
Mon 09:49:00 AM 41.0667 -73.7000 270° West  Level FlightAware Approximate

Login

Don't have an account? Register now (free) for customized features, flight alerts, and more!